sensor_id;sensor_type;location;lat;lon;timestamp;P1;durP1;ratioP1;P2;durP2;ratioP2
27201;SDS011;14717;46.924;15.474;2023-02-13T00:00:22;9.85;;;5.03;;
27201;SDS011;14717;46.924;15.474;2023-02-13T00:02:49;13.50;;;5.68;;
27201;SDS011;14717;46.924;15.474;2023-02-13T00:05:14;9.35;;;4.80;;
27201;SDS011;14717;46.924;15.474;2023-02-13T00:07:40;10.82;;;4.40;;
27201;SDS011;14717;46.924;15.474;2023-02-13T00:10:05;9.90;;;4.68;;
27201;SDS011;14717;46.924;15.474;2023-02-13T00:12:32;11.23;;;4.68;;
27201;SDS011;14717;46.924;15.474;2023-02-13T00:14:57;10.60;;;4.75;;
27201;SDS011;14717;46.924;15.474;2023-02-13T00:17:24;10.63;;;4.22;;
27201;SDS011;14717;46.924;15.474;2023-02-13T00:19:50;9.13;;;4.53;;
27201;SDS011;14717;46.924;15.474;2023-02-13T00:22:15;10.27;;;4.55;;
27201;SDS011;14717;46.924;15.474;2023-02-13T00:27:08;9.88;;;4.68;;
27201;SDS011;14717;46.924;15.474;2023-02-13T00:29:34;10.48;;;4.63;;
27201;SDS011;14717;46.924;15.474;2023-02-13T00:31:59;10.02;;;4.38;;
27201;SDS011;14717;46.924;15.474;2023-02-13T00:34:25;9.63;;;4.18;;
27201;SDS011;14717;46.924;15.474;2023-02-13T00:36:51;9.90;;;4.95;;
27201;SDS011;14717;46.924;15.474;2023-02-13T00:39:16;10.27;;;4.90;;
27201;SDS011;14717;46.924;15.474;2023-02-13T00:41:42;9.73;;;4.18;;
27201;SDS011;14717;46.924;15.474;2023-02-13T00:44:08;10.38;;;4.32;;
27201;SDS011;14717;46.924;15.474;2023-02-13T00:46:34;9.40;;;4.35;;
27201;SDS011;14717;46.924;15.474;2023-02-13T00:49:00;8.63;;;4.90;;
27201;SDS011;14717;46.924;15.474;2023-02-13T00:51:26;12.23;;;5.03;;
27201;SDS011;14717;46.924;15.474;2023-02-13T00:53:51;10.30;;;4.45;;
27201;SDS011;14717;46.924;15.474;2023-02-13T00:56:16;9.80;;;4.13;;
27201;SDS011;14717;46.924;15.474;2023-02-13T00:58:42;10.00;;;4.38;;
27201;SDS011;14717;46.924;15.474;2023-02-13T01:01:07;8.73;;;4.25;;
27201;SDS011;14717;46.924;15.474;2023-02-13T01:03:32;8.50;;;4.13;;
27201;SDS011;14717;46.924;15.474;2023-02-13T01:05:58;12.85;;;4.82;;
27201;SDS011;14717;46.924;15.474;2023-02-13T01:08:23;7.78;;;3.88;;
27201;SDS011;14717;46.924;15.474;2023-02-13T01:10:52;10.63;;;4.28;;
27201;SDS011;14717;46.924;15.474;2023-02-13T01:13:18;9.23;;;4.70;;
27201;SDS011;14717;46.924;15.474;2023-02-13T01:15:44;9.52;;;4.43;;
27201;SDS011;14717;46.924;15.474;2023-02-13T01:18:14;8.05;;;4.38;;
27201;SDS011;14717;46.924;15.474;2023-02-13T01:20:41;9.70;;;4.75;;
27201;SDS011;14717;46.924;15.474;2023-02-13T01:23:08;11.15;;;4.80;;
27201;SDS011;14717;46.924;15.474;2023-02-13T01:25:34;9.45;;;4.57;;
27201;SDS011;14717;46.924;15.474;2023-02-13T01:28:03;10.98;;;4.47;;
27201;SDS011;14717;46.924;15.474;2023-02-13T01:30:28;10.13;;;4.15;;
27201;SDS011;14717;46.924;15.474;2023-02-13T01:32:54;9.82;;;4.40;;
27201;SDS011;14717;46.924;15.474;2023-02-13T01:35:19;8.25;;;3.95;;
27201;SDS011;14717;46.924;15.474;2023-02-13T01:37:44;9.00;;;4.18;;
27201;SDS011;14717;46.924;15.474;2023-02-13T01:40:10;7.68;;;4.55;;
27201;SDS011;14717;46.924;15.474;2023-02-13T01:42:37;9.68;;;4.25;;
27201;SDS011;14717;46.924;15.474;2023-02-13T01:45:04;9.15;;;4.38;;
27201;SDS011;14717;46.924;15.474;2023-02-13T01:47:47;11.50;;;4.60;;
27201;SDS011;14717;46.924;15.474;2023-02-13T01:50:35;13.80;;;4.78;;
27201;SDS011;14717;46.924;15.474;2023-02-13T01:53:10;10.25;;;4.55;;
27201;SDS011;14717;46.924;15.474;2023-02-13T01:55:42;10.70;;;4.57;;
27201;SDS011;14717;46.924;15.474;2023-02-13T01:58:22;10.45;;;4.95;;
27201;SDS011;14717;46.924;15.474;2023-02-13T02:00:51;10.90;;;5.05;;
27201;SDS011;14717;46.924;15.474;2023-02-13T02:03:18;9.55;;;4.45;;
27201;SDS011;14717;46.924;15.474;2023-02-13T02:05:50;10.05;;;4.75;;
27201;SDS011;14717;46.924;15.474;2023-02-13T02:08:17;9.43;;;4.63;;
27201;SDS011;14717;46.924;15.474;2023-02-13T02:10:43;11.10;;;5.07;;
27201;SDS011;14717;46.924;15.474;2023-02-13T02:13:16;10.15;;;4.80;;
27201;SDS011;14717;46.924;15.474;2023-02-13T02:15:44;12.48;;;5.63;;
27201;SDS011;14717;46.924;15.474;2023-02-13T02:20:45;10.48;;;4.47;;
27201;SDS011;14717;46.924;15.474;2023-02-13T02:28:58;9.93;;;4.00;;
27201;SDS011;14717;46.924;15.474;2023-02-13T02:34:46;9.07;;;4.65;;
27201;SDS011;14717;46.924;15.474;2023-02-13T02:45:42;9.88;;;3.63;;
27201;SDS011;14717;46.924;15.474;2023-02-13T02:54:53;7.22;;;4.15;;
27201;SDS011;14717;46.924;15.474;2023-02-13T02:57:26;12.63;;;4.05;;
27201;SDS011;14717;46.924;15.474;2023-02-13T03:00:18;8.48;;;4.00;;
27201;SDS011;14717;46.924;15.474;2023-02-13T03:03:08;10.35;;;3.78;;
27201;SDS011;14717;46.924;15.474;2023-02-13T03:05:57;8.52;;;3.70;;
27201;SDS011;14717;46.924;15.474;2023-02-13T03:08:36;8.68;;;3.88;;
27201;SDS011;14717;46.924;15.474;2023-02-13T03:14:05;9.35;;;3.67;;
27201;SDS011;14717;46.924;15.474;2023-02-13T03:16:34;8.48;;;3.72;;
27201;SDS011;14717;46.924;15.474;2023-02-13T03:19:30;8.23;;;3.97;;
27201;SDS011;14717;46.924;15.474;2023-02-13T03:25:05;8.00;;;3.88;;
27201;SDS011;14717;46.924;15.474;2023-02-13T03:28:11;7.97;;;3.45;;
27201;SDS011;14717;46.924;15.474;2023-02-13T03:34:09;9.35;;;4.15;;
27201;SDS011;14717;46.924;15.474;2023-02-13T03:36:44;9.13;;;3.92;;
27201;SDS011;14717;46.924;15.474;2023-02-13T03:42:05;7.18;;;3.55;;
27201;SDS011;14717;46.924;15.474;2023-02-13T03:44:37;9.05;;;4.20;;
27201;SDS011;14717;46.924;15.474;2023-02-13T03:47:38;9.77;;;4.25;;
27201;SDS011;14717;46.924;15.474;2023-02-13T03:50:06;8.30;;;3.85;;
27201;SDS011;14717;46.924;15.474;2023-02-13T03:55:14;10.70;;;4.10;;
27201;SDS011;14717;46.924;15.474;2023-02-13T03:58:04;8.15;;;3.72;;
27201;SDS011;14717;46.924;15.474;2023-02-13T04:00:54;7.78;;;3.40;;
27201;SDS011;14717;46.924;15.474;2023-02-13T04:03:32;7.55;;;3.58;;
27201;SDS011;14717;46.924;15.474;2023-02-13T04:06:08;7.13;;;3.42;;
27201;SDS011;14717;46.924;15.474;2023-02-13T04:08:37;7.53;;;3.40;;
27201;SDS011;14717;46.924;15.474;2023-02-13T04:11:13;6.00;;;3.60;;
27201;SDS011;14717;46.924;15.474;2023-02-13T04:14:00;9.88;;;3.35;;
27201;SDS011;14717;46.924;15.474;2023-02-13T04:16:30;7.70;;;3.97;;
27201;SDS011;14717;46.924;15.474;2023-02-13T04:19:01;7.72;;;3.35;;
27201;SDS011;14717;46.924;15.474;2023-02-13T04:21:32;9.23;;;4.15;;
27201;SDS011;14717;46.924;15.474;2023-02-13T04:23:58;7.82;;;4.00;;
27201;SDS011;14717;46.924;15.474;2023-02-13T04:26:24;7.95;;;4.07;;
27201;SDS011;14717;46.924;15.474;2023-02-13T04:28:52;12.70;;;3.95;;
27201;SDS011;14717;46.924;15.474;2023-02-13T04:31:18;8.75;;;4.13;;
27201;SDS011;14717;46.924;15.474;2023-02-13T04:33:43;6.90;;;3.65;;
27201;SDS011;14717;46.924;15.474;2023-02-13T04:36:08;7.55;;;4.28;;
27201;SDS011;14717;46.924;15.474;2023-02-13T04:38:34;9.13;;;4.07;;
27201;SDS011;14717;46.924;15.474;2023-02-13T04:40:59;8.65;;;4.22;;
27201;SDS011;14717;46.924;15.474;2023-02-13T04:43:24;7.07;;;4.00;;
27201;SDS011;14717;46.924;15.474;2023-02-13T04:45:50;7.82;;;3.60;;
27201;SDS011;14717;46.924;15.474;2023-02-13T04:48:16;7.72;;;3.42;;
27201;SDS011;14717;46.924;15.474;2023-02-13T04:50:41;6.28;;;3.22;;
27201;SDS011;14717;46.924;15.474;2023-02-13T04:53:07;8.88;;;4.13;;
27201;SDS011;14717;46.924;15.474;2023-02-13T04:55:33;7.60;;;4.05;;
27201;SDS011;14717;46.924;15.474;2023-02-13T04:57:58;12.27;;;3.92;;
27201;SDS011;14717;46.924;15.474;2023-02-13T05:00:24;7.18;;;3.63;;
27201;SDS011;14717;46.924;15.474;2023-02-13T05:02:51;12.25;;;3.97;;
27201;SDS011;14717;46.924;15.474;2023-02-13T05:05:17;10.93;;;4.05;;
27201;SDS011;14717;46.924;15.474;2023-02-13T05:07:43;8.05;;;4.25;;
27201;SDS011;14717;46.924;15.474;2023-02-13T05:10:09;7.50;;;3.85;;
27201;SDS011;14717;46.924;15.474;2023-02-13T05:12:35;7.25;;;3.83;;
27201;SDS011;14717;46.924;15.474;2023-02-13T05:15:01;7.20;;;4.05;;
27201;SDS011;14717;46.924;15.474;2023-02-13T05:17:26;6.68;;;4.00;;
27201;SDS011;14717;46.924;15.474;2023-02-13T05:19:51;10.02;;;4.68;;
27201;SDS011;14717;46.924;15.474;2023-02-13T05:22:17;10.73;;;4.60;;
27201;SDS011;14717;46.924;15.474;2023-02-13T05:25:01;8.90;;;4.00;;
27201;SDS011;14717;46.924;15.474;2023-02-13T05:27:26;9.27;;;4.63;;
27201;SDS011;14717;46.924;15.474;2023-02-13T05:29:52;10.13;;;4.65;;
27201;SDS011;14717;46.924;15.474;2023-02-13T05:32:17;11.50;;;5.82;;
27201;SDS011;14717;46.924;15.474;2023-02-13T05:34:42;9.93;;;5.43;;
27201;SDS011;14717;46.924;15.474;2023-02-13T05:37:08;14.88;;;5.72;;
27201;SDS011;14717;46.924;15.474;2023-02-13T05:39:33;14.88;;;5.72;;
27201;SDS011;14717;46.924;15.474;2023-02-13T05:41:58;13.35;;;6.32;;
27201;SDS011;14717;46.924;15.474;2023-02-13T05:44:24;12.77;;;5.57;;
27201;SDS011;14717;46.924;15.474;2023-02-13T05:46:49;11.98;;;5.32;;
27201;SDS011;14717;46.924;15.474;2023-02-13T05:49:17;12.55;;;5.10;;
27201;SDS011;14717;46.924;15.474;2023-02-13T05:51:43;13.27;;;4.88;;
27201;SDS011;14717;46.924;15.474;2023-02-13T05:54:10;9.13;;;4.03;;
27201;SDS011;14717;46.924;15.474;2023-02-13T05:56:35;7.60;;;3.55;;
27201;SDS011;14717;46.924;15.474;2023-02-13T05:59:01;7.13;;;3.63;;
27201;SDS011;14717;46.924;15.474;2023-02-13T06:01:26;9.65;;;3.25;;
27201;SDS011;14717;46.924;15.474;2023-02-13T06:03:52;9.50;;;3.78;;
27201;SDS011;14717;46.924;15.474;2023-02-13T06:06:17;7.88;;;3.72;;
27201;SDS011;14717;46.924;15.474;2023-02-13T06:08:42;7.30;;;3.40;;
27201;SDS011;14717;46.924;15.474;2023-02-13T06:11:08;6.93;;;3.63;;
27201;SDS011;14717;46.924;15.474;2023-02-13T06:13:35;8.80;;;4.00;;
27201;SDS011;14717;46.924;15.474;2023-02-13T06:16:02;8.30;;;3.88;;
27201;SDS011;14717;46.924;15.474;2023-02-13T06:18:27;7.65;;;3.70;;
27201;SDS011;14717;46.924;15.474;2023-02-13T06:20:52;7.40;;;3.63;;
27201;SDS011;14717;46.924;15.474;2023-02-13T06:23:18;7.35;;;3.90;;
27201;SDS011;14717;46.924;15.474;2023-02-13T06:25:43;10.18;;;3.88;;
27201;SDS011;14717;46.924;15.474;2023-02-13T06:28:08;7.25;;;3.78;;
27201;SDS011;14717;46.924;15.474;2023-02-13T06:30:34;9.23;;;3.70;;
27201;SDS011;14717;46.924;15.474;2023-02-13T06:32:59;8.05;;;4.00;;
27201;SDS011;14717;46.924;15.474;2023-02-13T06:35:25;9.15;;;3.83;;
27201;SDS011;14717;46.924;15.474;2023-02-13T06:37:50;8.20;;;3.33;;
27201;SDS011;14717;46.924;15.474;2023-02-13T06:40:16;7.40;;;3.47;;
27201;SDS011;14717;46.924;15.474;2023-02-13T06:42:42;7.65;;;4.00;;
27201;SDS011;14717;46.924;15.474;2023-02-13T06:45:08;9.40;;;4.47;;
27201;SDS011;14717;46.924;15.474;2023-02-13T06:47:34;7.43;;;4.68;;
27201;SDS011;14717;46.924;15.474;2023-02-13T06:49:59;10.57;;;5.18;;
27201;SDS011;14717;46.924;15.474;2023-02-13T06:52:25;10.25;;;4.82;;
27201;SDS011;14717;46.924;15.474;2023-02-13T06:54:50;12.23;;;4.97;;
27201;SDS011;14717;46.924;15.474;2023-02-13T06:57:16;12.88;;;5.38;;
27201;SDS011;14717;46.924;15.474;2023-02-13T06:59:41;11.90;;;6.07;;
27201;SDS011;14717;46.924;15.474;2023-02-13T07:02:10;11.95;;;5.53;;
27201;SDS011;14717;46.924;15.474;2023-02-13T07:04:36;11.40;;;5.75;;
27201;SDS011;14717;46.924;15.474;2023-02-13T07:07:01;11.27;;;4.95;;
27201;SDS011;14717;46.924;15.474;2023-02-13T07:09:27;11.38;;;5.68;;
27201;SDS011;14717;46.924;15.474;2023-02-13T07:11:52;11.07;;;5.72;;
27201;SDS011;14717;46.924;15.474;2023-02-13T07:14:17;11.95;;;5.57;;
27201;SDS011;14717;46.924;15.474;2023-02-13T07:16:43;10.00;;;5.57;;
27201;SDS011;14717;46.924;15.474;2023-02-13T07:19:08;12.98;;;5.35;;
27201;SDS011;14717;46.924;15.474;2023-02-13T07:21:33;12.88;;;5.75;;
27201;SDS011;14717;46.924;15.474;2023-02-13T07:23:59;13.90;;;6.57;;
27201;SDS011;14717;46.924;15.474;2023-02-13T07:26:25;14.57;;;6.90;;
27201;SDS011;14717;46.924;15.474;2023-02-13T07:28:51;13.43;;;6.57;;
27201;SDS011;14717;46.924;15.474;2023-02-13T07:31:16;13.15;;;5.90;;
27201;SDS011;14717;46.924;15.474;2023-02-13T07:33:42;10.77;;;5.25;;
27201;SDS011;14717;46.924;15.474;2023-02-13T07:36:07;12.68;;;5.68;;
27201;SDS011;14717;46.924;15.474;2023-02-13T07:38:32;13.45;;;5.80;;
27201;SDS011;14717;46.924;15.474;2023-02-13T07:40:58;9.07;;;5.05;;
27201;SDS011;14717;46.924;15.474;2023-02-13T07:43:25;12.77;;;5.57;;
27201;SDS011;14717;46.924;15.474;2023-02-13T07:45:50;11.50;;;5.57;;
27201;SDS011;14717;46.924;15.474;2023-02-13T07:48:19;10.73;;;5.88;;
27201;SDS011;14717;46.924;15.474;2023-02-13T07:50:46;12.00;;;5.47;;
27201;SDS011;14717;46.924;15.474;2023-02-13T07:53:11;10.63;;;5.00;;
27201;SDS011;14717;46.924;15.474;2023-02-13T07:55:37;9.55;;;4.22;;
27201;SDS011;14717;46.924;15.474;2023-02-13T07:58:03;9.65;;;4.20;;
27201;SDS011;14717;46.924;15.474;2023-02-13T08:00:28;8.57;;;4.10;;
27201;SDS011;14717;46.924;15.474;2023-02-13T08:02:54;8.73;;;4.25;;
27201;SDS011;14717;46.924;15.474;2023-02-13T08:05:19;8.25;;;4.47;;
27201;SDS011;14717;46.924;15.474;2023-02-13T08:07:44;12.70;;;4.93;;
27201;SDS011;14717;46.924;15.474;2023-02-13T08:10:10;13.38;;;5.70;;
27201;SDS011;14717;46.924;15.474;2023-02-13T08:12:55;12.05;;;4.68;;
27201;SDS011;14717;46.924;15.474;2023-02-13T08:15:21;9.25;;;4.53;;
27201;SDS011;14717;46.924;15.474;2023-02-13T08:17:47;10.40;;;4.85;;
27201;SDS011;14717;46.924;15.474;2023-02-13T08:20:13;7.53;;;4.30;;
27201;SDS011;14717;46.924;15.474;2023-02-13T08:22:38;10.07;;;4.38;;
27201;SDS011;14717;46.924;15.474;2023-02-13T08:25:05;10.02;;;4.70;;
27201;SDS011;14717;46.924;15.474;2023-02-13T08:27:31;9.55;;;4.25;;
27201;SDS011;14717;46.924;15.474;2023-02-13T08:29:56;10.05;;;4.13;;
27201;SDS011;14717;46.924;15.474;2023-02-13T08:32:23;8.65;;;4.30;;
27201;SDS011;14717;46.924;15.474;2023-02-13T08:34:49;9.93;;;3.92;;
27201;SDS011;14717;46.924;15.474;2023-02-13T08:37:15;10.15;;;4.50;;
27201;SDS011;14717;46.924;15.474;2023-02-13T08:39:41;7.28;;;4.25;;
27201;SDS011;14717;46.924;15.474;2023-02-13T08:42:06;10.52;;;4.45;;
27201;SDS011;14717;46.924;15.474;2023-02-13T08:44:32;7.45;;;4.20;;
27201;SDS011;14717;46.924;15.474;2023-02-13T08:46:57;9.77;;;3.90;;
27201;SDS011;14717;46.924;15.474;2023-02-13T08:49:25;10.38;;;4.68;;
27201;SDS011;14717;46.924;15.474;2023-02-13T08:51:50;8.77;;;3.80;;
27201;SDS011;14717;46.924;15.474;2023-02-13T08:54:15;6.05;;;3.55;;
27201;SDS011;14717;46.924;15.474;2023-02-13T08:56:41;8.73;;;3.90;;
27201;SDS011;14717;46.924;15.474;2023-02-13T08:59:07;6.75;;;3.45;;
27201;SDS011;14717;46.924;15.474;2023-02-13T09:01:32;8.73;;;3.28;;
27201;SDS011;14717;46.924;15.474;2023-02-13T09:03:57;8.48;;;3.80;;
27201;SDS011;14717;46.924;15.474;2023-02-13T09:06:23;6.68;;;3.15;;
27201;SDS011;14717;46.924;15.474;2023-02-13T09:08:50;6.38;;;3.05;;
27201;SDS011;14717;46.924;15.474;2023-02-13T09:11:16;7.97;;;3.22;;
27201;SDS011;14717;46.924;15.474;2023-02-13T09:13:41;5.55;;;2.95;;
27201;SDS011;14717;46.924;15.474;2023-02-13T09:16:07;5.80;;;3.05;;
27201;SDS011;14717;46.924;15.474;2023-02-13T09:18:33;8.43;;;3.80;;
27201;SDS011;14717;46.924;15.474;2023-02-13T09:21:00;8.18;;;3.75;;
27201;SDS011;14717;46.924;15.474;2023-02-13T09:23:30;6.50;;;3.63;;
27201;SDS011;14717;46.924;15.474;2023-02-13T09:26:00;6.70;;;3.72;;
27201;SDS011;14717;46.924;15.474;2023-02-13T09:28:27;8.73;;;3.95;;
27201;SDS011;14717;46.924;15.474;2023-02-13T09:30:54;7.18;;;3.83;;
27201;SDS011;14717;46.924;15.474;2023-02-13T09:33:19;7.88;;;3.88;;
27201;SDS011;14717;46.924;15.474;2023-02-13T09:35:44;7.03;;;3.70;;
27201;SDS011;14717;46.924;15.474;2023-02-13T09:38:10;6.93;;;3.58;;
27201;SDS011;14717;46.924;15.474;2023-02-13T09:40:49;7.55;;;3.50;;
27201;SDS011;14717;46.924;15.474;2023-02-13T09:43:26;8.57;;;4.00;;
27201;SDS011;14717;46.924;15.474;2023-02-13T09:45:55;8.82;;;3.45;;
27201;SDS011;14717;46.924;15.474;2023-02-13T09:48:28;7.72;;;3.78;;
27201;SDS011;14717;46.924;15.474;2023-02-13T09:51:00;8.07;;;3.88;;
27201;SDS011;14717;46.924;15.474;2023-02-13T09:53:27;6.32;;;3.42;;
27201;SDS011;14717;46.924;15.474;2023-02-13T09:58:35;9.07;;;3.97;;
27201;SDS011;14717;46.924;15.474;2023-02-13T10:01:03;10.95;;;4.40;;
27201;SDS011;14717;46.924;15.474;2023-02-13T10:03:46;6.13;;;3.60;;
27201;SDS011;14717;46.924;15.474;2023-02-13T10:06:31;8.05;;;3.88;;
27201;SDS011;14717;46.924;15.474;2023-02-13T10:15:07;7.35;;;3.95;;
27201;SDS011;14717;46.924;15.474;2023-02-13T10:17:58;9.52;;;3.95;;
27201;SDS011;14717;46.924;15.474;2023-02-13T10:20:36;7.93;;;3.90;;
27201;SDS011;14717;46.924;15.474;2023-02-13T10:25:56;9.57;;;3.95;;
27201;SDS011;14717;46.924;15.474;2023-02-13T10:28:36;10.15;;;4.32;;
27201;SDS011;14717;46.924;15.474;2023-02-13T10:31:07;10.25;;;3.45;;
27201;SDS011;14717;46.924;15.474;2023-02-13T10:36:26;8.95;;;3.58;;
27201;SDS011;14717;46.924;15.474;2023-02-13T10:49:36;11.63;;;4.00;;
27201;SDS011;14717;46.924;15.474;2023-02-13T11:00:30;7.47;;;3.80;;
27201;SDS011;14717;46.924;15.474;2023-02-13T11:03:01;8.05;;;3.28;;
27201;SDS011;14717;46.924;15.474;2023-02-13T11:05:31;7.32;;;3.58;;
27201;SDS011;14717;46.924;15.474;2023-02-13T11:08:01;8.63;;;4.22;;
27201;SDS011;14717;46.924;15.474;2023-02-13T11:10:27;6.88;;;3.63;;
27201;SDS011;14717;46.924;15.474;2023-02-13T11:12:53;6.97;;;3.67;;
27201;SDS011;14717;46.924;15.474;2023-02-13T11:15:26;7.05;;;3.97;;
27201;SDS011;14717;46.924;15.474;2023-02-13T11:17:57;6.75;;;3.70;;
27201;SDS011;14717;46.924;15.474;2023-02-13T11:20:27;6.65;;;3.55;;
27201;SDS011;14717;46.924;15.474;2023-02-13T11:23:21;7.47;;;3.58;;
27201;SDS011;14717;46.924;15.474;2023-02-13T11:28:32;5.82;;;3.30;;
27201;SDS011;14717;46.924;15.474;2023-02-13T11:32:03;8.50;;;3.95;;
27201;SDS011;14717;46.924;15.474;2023-02-13T11:36:53;6.93;;;3.70;;
27201;SDS011;14717;46.924;15.474;2023-02-13T11:39:42;6.57;;;3.15;;
27201;SDS011;14717;46.924;15.474;2023-02-13T11:42:30;6.47;;;3.10;;
27201;SDS011;14717;46.924;15.474;2023-02-13T11:45:00;7.10;;;3.15;;
27201;SDS011;14717;46.924;15.474;2023-02-13T11:47:36;12.32;;;5.15;;
27201;SDS011;14717;46.924;15.474;2023-02-13T11:50:19;5.85;;;2.95;;
27201;SDS011;14717;46.924;15.474;2023-02-13T11:52:49;7.47;;;3.22;;
27201;SDS011;14717;46.924;15.474;2023-02-13T11:55:32;6.53;;;3.35;;
27201;SDS011;14717;46.924;15.474;2023-02-13T12:00:40;8.55;;;3.38;;
27201;SDS011;14717;46.924;15.474;2023-02-13T12:06:01;5.65;;;3.13;;
27201;SDS011;14717;46.924;15.474;2023-02-13T12:08:28;6.70;;;3.17;;
27201;SDS011;14717;46.924;15.474;2023-02-13T12:10:55;6.07;;;3.13;;
27201;SDS011;14717;46.924;15.474;2023-02-13T12:13:28;8.32;;;3.42;;
27201;SDS011;14717;46.924;15.474;2023-02-13T12:16:41;5.32;;;3.28;;
27201;SDS011;14717;46.924;15.474;2023-02-13T12:19:05;7.07;;;3.08;;
27201;SDS011;14717;46.924;15.474;2023-02-13T12:24:37;8.00;;;3.33;;
27201;SDS011;14717;46.924;15.474;2023-02-13T12:30:11;7.20;;;3.38;;
27201;SDS011;14717;46.924;15.474;2023-02-13T12:33:02;6.75;;;3.13;;
27201;SDS011;14717;46.924;15.474;2023-02-13T12:41:15;6.15;;;3.38;;
27201;SDS011;14717;46.924;15.474;2023-02-13T12:49:52;8.02;;;3.30;;
27201;SDS011;14717;46.924;15.474;2023-02-13T12:52:31;7.80;;;3.55;;
27201;SDS011;14717;46.924;15.474;2023-02-13T12:55:39;6.20;;;3.55;;
27201;SDS011;14717;46.924;15.474;2023-02-13T13:03:51;6.80;;;2.97;;
27201;SDS011;14717;46.924;15.474;2023-02-13T13:06:38;7.70;;;3.40;;
27201;SDS011;14717;46.924;15.474;2023-02-13T13:09:39;6.07;;;3.22;;
27201;SDS011;14717;46.924;15.474;2023-02-13T13:17:53;6.85;;;3.85;;
27201;SDS011;14717;46.924;15.474;2023-02-13T13:23:02;5.63;;;3.35;;
27201;SDS011;14717;46.924;15.474;2023-02-13T13:28:31;6.45;;;3.50;;
27201;SDS011;14717;46.924;15.474;2023-02-13T13:31:01;8.55;;;3.78;;
27201;SDS011;14717;46.924;15.474;2023-02-13T13:33:27;6.28;;;3.42;;
27201;SDS011;14717;46.924;15.474;2023-02-13T13:36:04;5.03;;;3.03;;
27201;SDS011;14717;46.924;15.474;2023-02-13T13:38:47;6.03;;;3.28;;
27201;SDS011;14717;46.924;15.474;2023-02-13T13:44:02;5.93;;;3.30;;
27201;SDS011;14717;46.924;15.474;2023-02-13T13:49:37;8.43;;;3.33;;
27201;SDS011;14717;46.924;15.474;2023-02-13T13:55:04;6.15;;;3.30;;
27201;SDS011;14717;46.924;15.474;2023-02-13T13:57:57;6.55;;;3.30;;
27201;SDS011;14717;46.924;15.474;2023-02-13T14:00:27;6.45;;;3.30;;
27201;SDS011;14717;46.924;15.474;2023-02-13T14:05:31;6.55;;;3.40;;
27201;SDS011;14717;46.924;15.474;2023-02-13T14:16:52;6.93;;;3.70;;
27201;SDS011;14717;46.924;15.474;2023-02-13T14:21:53;7.80;;;3.50;;
27201;SDS011;14717;46.924;15.474;2023-02-13T14:24:39;5.28;;;3.28;;
27201;SDS011;14717;46.924;15.474;2023-02-13T14:27:14;5.82;;;3.22;;
27201;SDS011;14717;46.924;15.474;2023-02-13T14:29:46;7.18;;;3.80;;
27201;SDS011;14717;46.924;15.474;2023-02-13T14:32:15;7.85;;;3.55;;
27201;SDS011;14717;46.924;15.474;2023-02-13T14:34:48;7.35;;;3.58;;
27201;SDS011;14717;46.924;15.474;2023-02-13T14:37:19;7.60;;;3.72;;
27201;SDS011;14717;46.924;15.474;2023-02-13T14:42:57;7.47;;;3.25;;
27201;SDS011;14717;46.924;15.474;2023-02-13T14:45:49;5.78;;;3.45;;
27201;SDS011;14717;46.924;15.474;2023-02-13T14:48:33;5.50;;;2.97;;
27201;SDS011;14717;46.924;15.474;2023-02-13T14:51:25;6.65;;;3.10;;
27201;SDS011;14717;46.924;15.474;2023-02-13T14:53:58;6.90;;;3.08;;
27201;SDS011;14717;46.924;15.474;2023-02-13T14:56:28;9.25;;;3.38;;
27201;SDS011;14717;46.924;15.474;2023-02-13T15:01:36;7.05;;;3.60;;
27201;SDS011;14717;46.924;15.474;2023-02-13T15:04:29;5.97;;;3.35;;
27201;SDS011;14717;46.924;15.474;2023-02-13T15:06:59;4.82;;;3.08;;
27201;SDS011;14717;46.924;15.474;2023-02-13T15:09:33;6.93;;;3.50;;
27201;SDS011;14717;46.924;15.474;2023-02-13T15:14:53;6.85;;;3.38;;
27201;SDS011;14717;46.924;15.474;2023-02-13T15:17:29;6.05;;;3.55;;
27201;SDS011;14717;46.924;15.474;2023-02-13T15:22:37;7.95;;;3.60;;
27201;SDS011;14717;46.924;15.474;2023-02-13T15:25:06;6.05;;;3.38;;
27201;SDS011;14717;46.924;15.474;2023-02-13T15:27:37;6.25;;;3.50;;
27201;SDS011;14717;46.924;15.474;2023-02-13T15:32:43;9.10;;;3.90;;
27201;SDS011;14717;46.924;15.474;2023-02-13T15:35:31;5.97;;;3.40;;
27201;SDS011;14717;46.924;15.474;2023-02-13T15:37:59;5.25;;;3.00;;
27201;SDS011;14717;46.924;15.474;2023-02-13T15:40:50;6.57;;;3.53;;
27201;SDS011;14717;46.924;15.474;2023-02-13T15:43:21;6.72;;;3.20;;
27201;SDS011;14717;46.924;15.474;2023-02-13T15:45:51;6.07;;;3.33;;
27201;SDS011;14717;46.924;15.474;2023-02-13T15:48:17;8.65;;;3.50;;
27201;SDS011;14717;46.924;15.474;2023-02-13T15:50:43;7.45;;;3.17;;
27201;SDS011;14717;46.924;15.474;2023-02-13T15:53:11;7.82;;;3.50;;
27201;SDS011;14717;46.924;15.474;2023-02-13T15:55:39;4.88;;;2.88;;
27201;SDS011;14717;46.924;15.474;2023-02-13T15:58:04;7.95;;;3.40;;
27201;SDS011;14717;46.924;15.474;2023-02-13T16:00:36;6.97;;;3.33;;
27201;SDS011;14717;46.924;15.474;2023-02-13T16:03:10;5.65;;;3.22;;
27201;SDS011;14717;46.924;15.474;2023-02-13T16:05:40;6.85;;;3.80;;
27201;SDS011;14717;46.924;15.474;2023-02-13T16:08:29;5.75;;;3.08;;
27201;SDS011;14717;46.924;15.474;2023-02-13T16:14:16;7.65;;;3.20;;
27201;SDS011;14717;46.924;15.474;2023-02-13T16:22:25;8.38;;;3.53;;
27201;SDS011;14717;46.924;15.474;2023-02-13T16:27:49;9.00;;;4.03;;
27201;SDS011;14717;46.924;15.474;2023-02-13T16:30:21;7.57;;;3.58;;
27201;SDS011;14717;46.924;15.474;2023-02-13T16:35:38;6.03;;;3.30;;
27201;SDS011;14717;46.924;15.474;2023-02-13T16:40:51;6.97;;;3.50;;
27201;SDS011;14717;46.924;15.474;2023-02-13T16:46:09;8.55;;;3.85;;
27201;SDS011;14717;46.924;15.474;2023-02-13T16:48:44;10.00;;;4.80;;
27201;SDS011;14717;46.924;15.474;2023-02-13T16:51:11;12.70;;;4.68;;
27201;SDS011;14717;46.924;15.474;2023-02-13T16:53:37;11.35;;;4.40;;
27201;SDS011;14717;46.924;15.474;2023-02-13T16:56:08;8.10;;;4.40;;
27201;SDS011;14717;46.924;15.474;2023-02-13T16:58:35;9.35;;;4.07;;
27201;SDS011;14717;46.924;15.474;2023-02-13T17:01:01;14.35;;;5.70;;
27201;SDS011;14717;46.924;15.474;2023-02-13T17:03:29;9.40;;;4.80;;
27201;SDS011;14717;46.924;15.474;2023-02-13T17:05:58;10.60;;;4.45;;
27201;SDS011;14717;46.924;15.474;2023-02-13T17:08:25;8.75;;;4.15;;
27201;SDS011;14717;46.924;15.474;2023-02-13T17:11:05;10.25;;;4.13;;
27201;SDS011;14717;46.924;15.474;2023-02-13T17:13:32;7.45;;;3.50;;
27201;SDS011;14717;46.924;15.474;2023-02-13T17:18:24;9.38;;;3.80;;
27201;SDS011;14717;46.924;15.474;2023-02-13T17:20:50;9.55;;;3.72;;
27201;SDS011;14717;46.924;15.474;2023-02-13T17:23:19;11.75;;;3.97;;
27201;SDS011;14717;46.924;15.474;2023-02-13T17:25:48;6.90;;;4.00;;
27201;SDS011;14717;46.924;15.474;2023-02-13T17:28:16;11.65;;;4.13;;
27201;SDS011;14717;46.924;15.474;2023-02-13T17:30:46;8.88;;;4.25;;
27201;SDS011;14717;46.924;15.474;2023-02-13T17:33:15;8.82;;;3.97;;
27201;SDS011;14717;46.924;15.474;2023-02-13T17:35:44;13.10;;;4.20;;
27201;SDS011;14717;46.924;15.474;2023-02-13T17:38:09;9.40;;;3.55;;
27201;SDS011;14717;46.924;15.474;2023-02-13T17:40:35;9.13;;;3.63;;
27201;SDS011;14717;46.924;15.474;2023-02-13T17:43:00;9.02;;;3.97;;
27201;SDS011;14717;46.924;15.474;2023-02-13T17:45:27;10.80;;;4.28;;
27201;SDS011;14717;46.924;15.474;2023-02-13T17:47:54;8.98;;;4.22;;
27201;SDS011;14717;46.924;15.474;2023-02-13T17:50:22;10.10;;;4.25;;